Time;durP1;ratioP1;P1;durP2;ratioP2;P2;SDS_P1;SDS_P2;PMS_P1;PMS_P2;Temp;Humidity;BMP_temperature;BMP_pressure;BME280_temperature;BME280_humidity;BME280_pressure;Samples;Min_cycle;Max_cycle;Signal;HPM_P1;HPM_P2
2021/06/09 00:01:36;;;;;;;;;;;;;;;23.74;61.88;101305.84;4968344;28;1300;-68
2021/06/09 00:04:03;;;;;;;;;;;;;;;23.71;61.96;101306.06;4966860;28;1535;-67
2021/06/09 00:06:31;;;;;;;;;;;;;;;23.64;61.75;101299.44;4949073;28;1284;-68
2021/06/09 00:08:57;;;;;;;;;;;;;;;23.66;61.45;101297.53;4949172;28;1110;-67
2021/06/09 00:11:24;;;;;;;;;;;;;;;23.56;61.35;101283.19;4949009;28;1347;-67
2021/06/09 00:13:51;;;;;;;;;;;;;;;23.63;61.46;101297.72;4948756;28;779;-67
2021/06/09 00:16:19;;;;;;;;;;;;;;;23.56;61.65;101294.63;4948525;28;1389;-67
2021/06/09 00:18:46;;;;;;;;;;;;;;;23.56;61.80;101299.94;4948743;28;1918;-67
2021/06/09 00:21:13;;;;;;;;;;;;;;;23.56;61.69;101299.13;4948766;28;1288;-68
2021/06/09 00:23:40;;;;;;;;;;;;;;;23.53;61.62;101291.38;4949024;28;807;-69
2021/06/09 00:26:06;;;;;;;;;;;;;;;23.56;61.29;101296.47;4948790;28;1217;-68
2021/06/09 00:28:34;;;;;;;;;;;;;;;23.52;61.07;101289.66;4948644;28;1372;-68
2021/06/09 00:31:05;;;;;;;;;;;;;;;23.57;60.89;101285.72;4948832;28;1061;-67
2021/06/09 00:33:32;;;;;;;;;;;;;;;23.43;61.23;101291.13;4949118;28;1186;-67
2021/06/09 00:35:59;;;;;;;;;;;;;;;23.51;61.02;101298.56;4948833;28;1070;-67
2021/06/09 00:38:27;;;;;;;;;;;;;;;23.48;61.25;101290.81;4948470;28;1988;-67
2021/06/09 00:40:54;;;;;;;;;;;;;;;23.48;61.16;101282.81;4948730;28;1030;-67
2021/06/09 00:43:22;;;;;;;;;;;;;;;23.50;61.25;101284.41;4948369;28;1206;-67
2021/06/09 00:45:57;;;;;;;;;;;;;;;23.56;60.91;101285.84;4948411;28;1497;-67
2021/06/09 00:48:28;;;;;;;;;;;;;;;23.54;61.13;101285.94;4948276;28;1339;-67
2021/06/09 00:50:56;;;;;;;;;;;;;;;23.52;61.12;101297.63;4946966;28;992;-67
2021/06/09 00:53:33;;;;;;;;;;;;;;;23.50;61.04;101291.56;4948312;28;1300;-68
2021/06/09 00:56:01;;;;;;;;;;;;;;;23.39;61.23;101287.81;4931161;28;1259;-67
2021/06/09 00:58:28;;;;;;;;;;;;;;;23.59;60.81;101283.78;4947947;28;1918;-66
2021/06/09 01:00:55;;;;;;;;;;;;;;;23.44;60.79;101284.00;4947594;28;883;-68
2021/06/09 01:03:23;;;;;;;;;;;;;;;23.42;61.02;101283.25;4947988;28;1225;-67
2021/06/09 01:05:49;;;;;;;;;;;;;;;23.41;60.70;101277.06;4948108;28;1281;-66
2021/06/09 01:08:17;;;;;;;;;;;;;;;23.41;60.94;101284.22;4948523;28;1287;-67
2021/06/09 01:10:45;;;;;;;;;;;;;;;23.41;60.69;101279.72;4946652;28;1297;-67
2021/06/09 01:13:12;;;;;;;;;;;;;;;23.37;60.98;101287.06;4948442;28;1338;-67
2021/06/09 01:15:38;;;;;;;;;;;;;;;23.44;60.55;101284.00;4948357;28;1104;-68
2021/06/09 01:18:05;;;;;;;;;;;;;;;23.38;60.83;101277.25;4948491;28;1918;-67
2021/06/09 01:20:33;;;;;;;;;;;;;;;23.41;60.79;101276.25;4947970;28;787;-66
2021/06/09 01:23:00;;;;;;;;;;;;;;;23.46;60.60;101279.44;4948210;28;1276;-66
2021/06/09 01:25:28;;;;;;;;;;;;;;;23.43;60.66;101275.19;4931120;28;1151;-67
2021/06/09 01:27:54;;;;;;;;;;;;;;;23.45;60.70;101267.94;4948258;28;1304;-66
2021/06/09 01:30:22;;;;;;;;;;;;;;;23.45;60.73;101272.41;4949917;28;1300;-66
2021/06/09 01:32:50;;;;;;;;;;;;;;;23.37;61.09;101276.44;4951784;28;1382;-66
2021/06/09 01:35:18;;;;;;;;;;;;;;;23.43;60.87;101269.00;4949967;28;839;-66
2021/06/09 01:37:45;;;;;;;;;;;;;;;23.44;60.84;101276.03;4951138;29;1914;-67
2021/06/09 01:40:14;;;;;;;;;;;;;;;23.41;60.78;101276.25;4951104;28;779;-67
2021/06/09 01:42:41;;;;;;;;;;;;;;;23.39;60.82;101279.00;4951097;28;1378;-67
2021/06/09 01:45:11;;;;;;;;;;;;;;;23.46;60.53;101274.97;4951378;28;755;-67
2021/06/09 01:47:38;;;;;;;;;;;;;;;23.41;60.85;101276.25;4951587;28;1229;-67
2021/06/09 01:50:06;;;;;;;;;;;;;;;23.37;60.97;101276.44;4951281;28;880;-66
2021/06/09 01:52:33;;;;;;;;;;;;;;;23.38;61.04;101272.78;4951246;28;1252;-67
2021/06/09 01:55:01;;;;;;;;;;;;;;;23.38;60.99;101275.44;4962057;28;1694;-67
2021/06/09 01:57:28;;;;;;;;;;;;;;;23.33;60.75;101266.09;4950400;28;1907;-67
2021/06/09 01:59:54;;;;;;;;;;;;;;;23.37;60.77;101267.59;4949977;28;1123;-67
2021/06/09 02:02:21;;;;;;;;;;;;;;;23.36;60.78;101269.41;4949367;28;1296;-67
2021/06/09 02:04:48;;;;;;;;;;;;;;;23.41;60.49;101262.97;4950975;28;800;-67
2021/06/09 02:07:15;;;;;;;;;;;;;;;23.28;60.93;101269.06;4950903;28;1312;-67
2021/06/09 02:09:43;;;;;;;;;;;;;;;23.37;60.61;101264.94;4950879;28;783;-67
2021/06/09 02:12:10;;;;;;;;;;;;;;;23.32;60.40;101273.22;4950720;28;1225;-68
2021/06/09 02:14:37;;;;;;;;;;;;;;;23.29;60.54;101267.25;4933407;28;1305;-67
2021/06/09 02:17:05;;;;;;;;;;;;;;;23.30;60.45;101275.13;4949270;28;1284;-67
2021/06/09 02:19:32;;;;;;;;;;;;;;;23.35;60.35;101267.69;4950410;28;1985;-67
2021/06/09 02:21:59;;;;;;;;;;;;;;;23.29;60.75;101265.44;4949486;28;1456;-67
2021/06/09 02:24:26;;;;;;;;;;;;;;;23.34;60.04;101260.69;4950371;28;775;-67
2021/06/09 02:26:54;;;;;;;;;;;;;;;23.30;60.05;101259.19;4950406;29;1327;-67
2021/06/09 02:29:20;;;;;;;;;;;;;;;23.25;60.22;101265.78;4950492;28;830;-66
2021/06/09 02:31:48;;;;;;;;;;;;;;;23.25;59.83;101258.66;4950422;28;1378;-67
2021/06/09 02:34:16;;;;;;;;;;;;;;;23.27;59.76;101258.53;4950511;28;811;-67
2021/06/09 02:36:43;;;;;;;;;;;;;;;23.29;59.90;101261.94;4950337;28;1300;-66
2021/06/09 02:39:11;;;;;;;;;;;;;;;23.31;59.84;101255.56;4950129;28;1919;-67
2021/06/09 02:41:38;;;;;;;;;;;;;;;23.29;59.83;101257.47;4950361;28;1276;-66
2021/06/09 02:44:05;;;;;;;;;;;;;;;23.26;60.09;101252.34;4950248;28;866;-66
2021/06/09 02:46:39;;;;;;;;;;;;;;;23.25;60.12;101250.69;4950055;28;1400;-66
2021/06/09 02:49:08;;;;;;;;;;;;;;;23.24;59.88;101248.97;4948900;29;783;-66
2021/06/09 02:51:37;;;;;;;;;;;;;;;23.24;59.72;101251.63;4950154;28;1281;-66
2021/06/09 02:54:11;;;;;;;;;;;;;;;23.28;59.53;101244.28;4948593;28;1393;-66
2021/06/09 02:56:48;;;;;;;;;;;;;;;23.23;59.42;101246.41;4948614;28;1360;-66
2021/06/09 02:59:44;;;;;;;;;;;;;;;23.28;59.56;101244.28;4949599;29;1978;-67
2021/06/09 03:02:29;;;;;;;;;;;;;;;23.19;59.48;101245.75;5017912;28;1288;-67
2021/06/09 03:05:01;;;;;;;;;;;;;;;23.18;59.30;101233.44;4950245;29;780;-67
2021/06/09 03:07:31;;;;;;;;;;;;;;;23.23;58.62;101239.28;4950311;29;1233;-67
2021/06/09 03:10:04;;;;;;;;;;;;;;;23.17;58.58;101239.69;4949802;28;1196;-67
2021/06/09 03:12:40;;;;;;;;;;;;;;;23.16;58.43;101235.31;4949965;28;1296;-67
2021/06/09 03:15:11;;;;;;;;;;;;;;;23.13;58.84;101235.53;4949820;29;838;-67
2021/06/09 03:17:43;;;;;;;;;;;;;;;23.14;57.91;101231.94;4950167;28;1377;-67
2021/06/09 03:20:13;;;;;;;;;;;;;;;23.18;57.54;101232.59;4949933;29;843;-67
2021/06/09 03:22:58;;;;;;;;;;;;;;;23.17;57.52;101238.84;4949827;28;1276;-67
2021/06/09 03:25:33;;;;;;;;;;;;;;;23.10;57.40;101230.41;4948139;28;1208;-67
2021/06/09 03:28:17;;;;;;;;;;;;;;;23.14;57.35;101226.63;4949875;28;1410;-68
2021/06/09 03:30:46;;;;;;;;;;;;;;;23.13;57.26;101232.06;4949780;28;859;-67
2021/06/09 03:33:13;;;;;;;;;;;;;;;23.14;57.46;101229.28;4949837;28;1333;-67
2021/06/09 03:35:44;;;;;;;;;;;;;;;23.19;57.23;101231.63;4949368;28;870;-67
2021/06/09 03:38:34;;;;;;;;;;;;;;;23.19;56.52;101232.47;4948011;28;1985;-67
2021/06/09 03:41:03;;;;;;;;;;;;;;;23.14;56.33;101237.25;4958869;28;1194;-67
2021/06/09 03:43:31;;;;;;;;;;;;;;;23.17;56.64;101239.69;4949166;28;1335;-68
2021/06/09 03:45:59;;;;;;;;;;;;;;;23.22;56.40;101234.09;4949099;28;1192;-68
2021/06/09 03:48:27;;;;;;;;;;;;;;;23.19;55.92;101239.59;4949169;29;1452;-68
2021/06/09 03:50:56;;;;;;;;;;;;;;;23.13;56.51;101246.16;4948769;28;1008;-68
2021/06/09 03:53:24;;;;;;;;;;;;;;;23.10;56.73;101241.06;4947831;28;1296;-68
2021/06/09 03:55:51;;;;;;;;;;;;;;;23.11;56.81;101240.09;4950122;28;786;-68
2021/06/09 03:58:18;;;;;;;;;;;;;;;23.09;57.31;101249.16;4949803;28;1914;-67
2021/06/09 04:00:46;;;;;;;;;;;;;;;23.14;57.40;101247.88;4948658;28;930;-67
2021/06/09 04:03:13;;;;;;;;;;;;;;;23.09;57.69;101257.97;4949490;28;1284;-67
2021/06/09 04:05:41;;;;;;;;;;;;;;;23.04;57.94;101253.94;4949190;28;1225;-67
2021/06/09 04:08:09;;;;;;;;;;;;;;;23.08;57.27;101260.72;4948149;28;1272;-67
2021/06/09 04:10:37;;;;;;;;;;;;;;;22.98;57.54;101257.00;4949244;28;802;-68
2021/06/09 04:13:04;;;;;;;;;;;;;;;22.98;57.69;101251.69;4949346;28;1240;-67
2021/06/09 04:15:31;;;;;;;;;;;;;;;23.01;57.52;101257.63;4947661;28;818;-67
2021/06/09 04:17:59;;;;;;;;;;;;;;;23.09;57.61;101255.31;4949479;28;1910;-67
2021/06/09 04:20:30;;;;;;;;;;;;;;;23.07;57.76;101256.38;4948632;28;1579;-67
2021/06/09 04:22:57;;;;;;;;;;;;;;;23.03;57.58;101257.53;4949509;28;1343;-68
2021/06/09 04:25:25;;;;;;;;;;;;;;;23.06;58.76;101259.97;4948809;28;767;-68
2021/06/09 04:27:52;;;;;;;;;;;;;;;23.07;57.90;101254.53;4949111;28;1310;-68
2021/06/09 04:30:19;;;;;;;;;;;;;;;23.08;57.67;101258.91;4948562;28;1599;-68
2021/06/09 04:32:57;;;;;;;;;;;;;;;23.00;58.08;101255.94;4948913;28;1379;-68
2021/06/09 04:35:25;;;;;;;;;;;;;;;22.98;57.93;101263.13;4948439;28;1150;-68
2021/06/09 04:37:51;;;;;;;;;;;;;;;23.00;58.01;101260.38;4947517;28;1386;-68
2021/06/09 04:40:21;;;;;;;;;;;;;;;23.06;57.84;101265.28;4948449;28;1911;-68
2021/06/09 04:42:49;;;;;;;;;;;;;;;23.02;57.57;101269.09;4948355;28;1390;-68
2021/06/09 04:45:17;;;;;;;;;;;;;;;23.09;58.13;101259.78;4947111;28;834;-67
2021/06/09 04:47:45;;;;;;;;;;;;;;;23.05;57.86;101261.78;4948802;28;1375;-68
2021/06/09 04:50:23;;;;;;;;;;;;;;;23.02;58.17;101264.66;4948021;28;1437;-67
2021/06/09 04:52:50;;;;;;;;;;;;;;;23.02;58.19;101264.66;4948339;29;1237;-70
2021/06/09 04:55:18;;;;;;;;;;;;;;;22.91;58.39;101267.16;4948016;28;764;-69
2021/06/09 04:57:44;;;;;;;;;;;;;;;23.07;58.12;101273.16;4947029;28;1294;-68
2021/06/09 05:00:14;;;;;;;;;;;;;;;22.95;58.77;101273.97;4948335;28;1982;-68
2021/06/09 05:02:41;;;;;;;;;;;;;;;22.93;59.52;101265.25;4946302;28;1433;-68
2021/06/09 05:05:08;;;;;;;;;;;;;;;23.02;59.38;101269.97;4948384;28;906;-68
2021/06/09 05:07:35;;;;;;;;;;;;;;;22.99;59.69;101270.16;4946514;28;1397;-68
2021/06/09 05:10:02;;;;;;;;;;;;;;;22.93;60.15;101280.34;4948034;28;807;-69
2021/06/09 05:12:31;;;;;;;;;;;;;;;22.80;60.48;101275.84;4948115;28;1290;-69
2021/06/09 05:15:05;;;;;;;;;;;;;;;22.94;60.40;101266.97;4946555;28;1147;-68
2021/06/09 05:17:52;;;;;;;;;;;;;;;23.05;59.77;101267.09;4947621;28;1702;-69
2021/06/09 05:20:24;;;;;;;;;;;;;;;23.04;60.04;101265.38;4947766;28;1976;-68
2021/06/09 05:22:55;;;;;;;;;;;;;;;23.04;59.82;101267.22;4948152;28;1276;-69
2021/06/09 05:25:22;;;;;;;;;;;;;;;23.00;60.14;101266.56;4947955;29;1233;-68
2021/06/09 05:27:51;;;;;;;;;;;;;;;23.08;59.81;101274.84;4948255;28;1264;-72
2021/06/09 05:30:19;;;;;;;;;;;;;;;22.99;60.16;101272.81;4948114;28;787;-69
2021/06/09 05:32:46;;;;;;;;;;;;;;;23.10;59.67;101266.81;4948172;28;1351;-70
2021/06/09 05:35:12;;;;;;;;;;;;;;;;;;4948250;28;864;-69
2021/06/09 05:37:40;;;;;;;;;;;;;;;23.26;59.00;101278.09;4947679;28;1281;-71
2021/06/09 05:40:09;;;;;;;;;;;;;;;23.28;58.84;101271.72;4948812;28;1910;-69
2021/06/09 05:42:37;;;;;;;;;;;;;;;23.24;58.85;101275.53;4946942;28;1213;-68
2021/06/09 05:45:05;;;;;;;;;;;;;;;23.32;58.22;101275.88;4954176;28;881;-65
2021/06/09 05:47:38;;;;;;;;;;;;;;;23.33;58.27;101280.25;4967353;28;1506;-65
2021/06/09 05:50:10;;;;;;;;;;;;;;;23.41;58.76;101285.06;4960295;28;810;-66
2021/06/09 05:52:50;;;;;;;;;;;;;;;23.47;58.33;101276.66;4946662;28;1237;-65
2021/06/09 05:55:21;;;;;;;;;;;;;;;23.54;58.48;101279.75;4947808;28;777;-65
2021/06/09 05:57:48;;;;;;;;;;;;;;;23.56;58.50;101285.84;4947357;28;1263;-64
2021/06/09 06:00:17;;;;;;;;;;;;;;;23.59;58.25;101290.94;4947753;28;1914;-63
2021/06/09 06:02:45;;;;;;;;;;;;;;;23.61;57.99;101286.34;4947622;28;1650;-64
2021/06/09 06:05:12;;;;;;;;;;;;;;;23.57;57.72;101284.84;4947646;28;857;-65
2021/06/09 06:07:39;;;;;;;;;;;;;;;23.54;57.82;101290.38;4946958;28;1541;-65
2021/06/09 06:10:06;;;;;;;;;;;;;;;23.58;57.83;101283.91;4946796;28;894;-65
2021/06/09 06:12:34;;;;;;;;;;;;;;;23.57;57.83;101292.84;4947507;28;1260;-64
2021/06/09 06:15:03;;;;;;;;;;;;;;;23.59;57.96;101289.09;4948763;28;937;-64
2021/06/09 06:17:29;;;;;;;;;;;;;;;23.58;57.77;101283.91;4949604;28;1272;-64
2021/06/09 06:20:01;;;;;;;;;;;;;;;23.64;57.59;101292.31;4950679;28;1914;-64
2021/06/09 06:22:39;;;;;;;;;;;;;;;23.66;57.67;101286.88;4950488;28;1220;-64
2021/06/09 06:25:06;;;;;;;;;;;;;;;23.74;58.02;101289.88;4949235;28;1543;-65
2021/06/09 06:27:34;;;;;;;;;;;;;;;23.74;58.11;101289.88;4950784;28;1342;-66
2021/06/09 06:30:02;;;;;;;;;;;;;;;23.75;57.88;101289.75;4950440;28;907;-66
2021/06/09 06:32:29;;;;;;;;;;;;;;;23.74;58.00;101301.34;4950207;28;1281;-68
2021/06/09 06:34:57;;;;;;;;;;;;;;;23.74;57.91;101295.19;4950999;28;826;-66
2021/06/09 06:37:25;;;;;;;;;;;;;;;23.75;57.80;101302.19;4950647;28;1277;-65
2021/06/09 06:39:52;;;;;;;;;;;;;;;23.87;58.17;101304.00;4950046;28;1910;-65
2021/06/09 06:42:19;;;;;;;;;;;;;;;23.90;57.88;101301.13;4950114;28;1285;-65
2021/06/09 06:44:45;;;;;;;;;;;;;;;23.87;57.51;101306.66;4954537;28;1532;-66
2021/06/09 06:47:14;;;;;;;;;;;;;;;23.85;57.99;101308.59;4958912;28;1601;-67
2021/06/09 06:49:43;;;;;;;;;;;;;;;23.84;58.04;101309.53;4949766;29;799;-66
2021/06/09 06:52:10;;;;;;;;;;;;;;;23.89;57.90;101316.25;4967861;28;1331;-66
2021/06/09 06:54:36;;;;;;;;;;;;;;;23.95;57.72;101317.66;4969016;28;919;-66
2021/06/09 06:57:03;;;;;;;;;;;;;;;23.91;58.03;101318.81;4969552;28;1252;-66
2021/06/09 06:59:34;;;;;;;;;;;;;;;23.88;57.76;101319.88;4952479;28;1983;-66
2021/06/09 07:02:06;;;;;;;;;;;;;;;23.89;57.98;101331.38;4950972;28;1419;-66
2021/06/09 07:04:34;;;;;;;;;;;;;;;23.88;57.91;101322.53;4950404;28;736;-66
2021/06/09 07:07:02;;;;;;;;;;;;;;;23.90;57.65;101325.94;4950617;28;1876;-66
2021/06/09 07:09:29;;;;;;;;;;;;;;;23.91;57.16;101324.13;4984829;28;1186;-68
2021/06/09 07:11:56;;;;;;;;;;;;;;;23.92;56.98;101328.50;4985665;28;1284;-67
2021/06/09 07:14:24;;;;;;;;;;;;;;;23.89;56.73;101329.53;4987177;28;810;-67
2021/06/09 07:16:52;;;;;;;;;;;;;;;23.95;56.57;101336.28;4956043;28;1293;-68
2021/06/09 07:19:19;;;;;;;;;;;;;;;23.94;56.34;101334.56;4946429;28;2002;-69
2021/06/09 07:21:46;;;;;;;;;;;;;;;23.96;56.23;101343.28;4947678;28;1440;-67
2021/06/09 07:24:12;;;;;;;;;;;;;;;23.98;55.69;101330.75;4962499;28;1225;-68
2021/06/09 07:26:41;;;;;;;;;;;;;;;23.99;55.50;101344.88;4985928;28;1244;-68
2021/06/09 07:29:09;;;;;;;;;;;;;;;23.99;54.77;101344.88;4985465;28;722;-67
2021/06/09 07:31:37;;;;;;;;;;;;;;;23.99;53.09;101343.06;4986691;28;1358;-67
2021/06/09 07:34:04;;;;;;;;;;;;;;;23.98;52.73;101351.19;4968714;28;1116;-67
2021/06/09 07:36:42;;;;;;;;;;;;;;;23.99;52.49;101350.19;5018881;28;1398;-67
2021/06/09 07:39:11;;;;;;;;;;;;;;;24.00;51.94;101358.09;5069127;28;1977;-70
2021/06/09 07:41:40;;;;;;;;;;;;;;;24.01;51.45;101359.81;5018264;28;1326;-68
2021/06/09 07:44:08;;;;;;;;;;;;;;;24.02;51.51;101361.47;4971039;28;1175;-67
2021/06/09 07:46:37;;;;;;;;;;;;;;;24.03;52.00;101363.19;5068627;28;1283;-68
2021/06/09 07:49:06;;;;;;;;;;;;;;;24.04;50.56;101359.59;5068384;28;722;-68
2021/06/09 07:51:34;;;;;;;;;;;;;;;24.05;49.80;101363.94;5068855;28;1240;-67
2021/06/09 07:54:01;;;;;;;;;;;;;;;24.08;49.69;101363.72;5068830;28;1062;-67
2021/06/09 07:56:35;;;;;;;;;;;;;;;24.07;48.82;101364.69;5068675;28;1351;-67
2021/06/09 07:59:03;;;;;;;;;;;;;;;24.08;49.37;101363.72;5068372;28;1902;-67
2021/06/09 08:01:31;;;;;;;;;;;;;;;24.09;49.16;101367.22;5068033;28;1347;-68
2021/06/09 08:03:58;;;;;;;;;;;;;;;24.11;48.61;101366.19;5067212;28;1180;-69
2021/06/09 08:06:25;;;;;;;;;;;;;;;24.12;48.33;101367.91;5068773;28;1354;-69
2021/06/09 08:08:52;;;;;;;;;;;;;;;24.12;48.65;101367.91;5069169;28;734;-69
2021/06/09 08:11:21;;;;;;;;;;;;;;;24.17;47.71;101368.44;5067211;28;1445;-69
2021/06/09 08:13:48;;;;;;;;;;;;;;;24.16;49.68;101366.75;5069028;28;1079;-68
2021/06/09 08:16:17;;;;;;;;;;;;;;;24.14;48.02;101370.44;5009257;28;1230;-68
2021/06/09 08:18:44;;;;;;;;;;;;;;;24.15;49.90;101365.03;4950167;28;1501;-69
2021/06/09 08:21:12;;;;;;;;;;;;;;;24.13;48.03;101372.28;4951078;28;1915;-70
2021/06/09 08:23:41;;;;;;;;;;;;;;;24.12;50.03;101372.38;4962633;28;1514;-69
2021/06/09 08:26:09;;;;;;;;;;;;;;;24.09;50.98;101368.09;4964408;28;1529;-67
2021/06/09 08:28:37;;;;;;;;;;;;;;;24.10;51.06;101375.13;4947516;28;1312;-68
2021/06/09 08:31:05;;;;;;;;;;;;;;;24.12;51.32;101375.91;4945925;28;1190;-70
2021/06/09 08:33:34;;;;;;;;;;;;;;;24.14;50.79;101376.63;4947678;28;1209;-68
2021/06/09 08:36:05;;;;;;;;;;;;;;;24.14;50.92;101373.09;4958970;28;1640;-67
2021/06/09 08:38:33;;;;;;;;;;;;;;;24.17;47.53;101376.41;4966444;28;1216;-66
2021/06/09 08:41:00;;;;;;;;;;;;;;;24.23;50.08;101373.31;4966575;28;1998;-66
2021/06/09 08:43:26;;;;;;;;;;;;;;;24.22;50.22;101362.78;4966564;28;1216;-65
2021/06/09 08:45:54;;;;;;;;;;;;;;;24.18;51.16;101366.63;4964813;28;1442;-65
2021/06/09 08:48:20;;;;;;;;;;;;;;;24.16;50.28;101364.09;4966596;28;1260;-65
2021/06/09 08:50:48;;;;;;;;;;;;;;;24.18;50.85;101367.47;4964859;28;1329;-66
2021/06/09 08:53:22;;;;;;;;;;;;;;;24.19;49.62;101371.84;4952217;28;1498;-69
2021/06/09 08:55:49;;;;;;;;;;;;;;;24.23;49.81;101372.47;4945240;28;1562;-68
2021/06/09 08:58:16;;;;;;;;;;;;;;;24.23;50.00;101369.81;4946722;28;1226;-68
2021/06/09 09:00:44;;;;;;;;;;;;;;;24.20;49.80;101375.34;4945177;28;1910;-68
2021/06/09 09:03:11;;;;;;;;;;;;;;;24.19;50.62;101373.66;4946978;28;1344;-69
2021/06/09 09:05:38;;;;;;;;;;;;;;;24.20;49.44;101378.00;4947059;28;787;-68
2021/06/09 09:08:05;;;;;;;;;;;;;;;24.21;50.81;101369.94;4946925;28;1280;-68
2021/06/09 09:10:33;;;;;;;;;;;;;;;24.22;49.58;101382.28;4930721;28;1250;-69
2021/06/09 09:13:01;;;;;;;;;;;;;;;24.22;49.08;101376.09;4948532;28;1355;-69
2021/06/09 09:15:28;;;;;;;;;;;;;;;24.22;50.02;101387.63;4948105;28;759;-69
2021/06/09 09:17:56;;;;;;;;;;;;;;;24.21;49.74;101385.91;4947921;28;1373;-69
2021/06/09 09:20:24;;;;;;;;;;;;;;;24.24;49.70;101390.16;4946054;28;1914;-68
2021/06/09 09:22:52;;;;;;;;;;;;;;;24.25;49.82;101387.41;4948236;29;1346;-68
2021/06/09 09:25:21;;;;;;;;;;;;;;;24.23;49.49;101389.28;4947699;28;1101;-67
2021/06/09 09:27:51;;;;;;;;;;;;;;;24.22;50.26;101386.75;4948272;28;1279;-66
2021/06/09 09:30:19;;;;;;;;;;;;;;;24.21;49.70;101393.88;4947876;28;841;-66
2021/06/09 09:32:58;;;;;;;;;;;;;;;24.31;48.84;101386.97;4948201;28;1540;-63
2021/06/09 09:35:26;;;;;;;;;;;;;;;24.29;49.27;101394.19;4949838;28;801;-65
2021/06/09 09:38:08;;;;;;;;;;;;;;;24.27;49.52;101393.47;4946696;28;1289;-64
2021/06/09 09:40:35;;;;;;;;;;;;;;;24.26;49.42;101394.41;4947899;29;1939;-64
2021/06/09 09:43:02;;;;;;;;;;;;;;;24.26;49.83;101393.53;4946795;28;1304;-64
2021/06/09 09:45:34;;;;;;;;;;;;;;;24.26;48.93;101399.72;4947930;28;786;-65
2021/06/09 09:48:09;;;;;;;;;;;;;;;24.24;49.29;101401.66;4948567;29;1601;-64
2021/06/09 09:50:37;;;;;;;;;;;;;;;24.24;49.18;101401.66;4950367;28;775;-64
2021/06/09 09:53:26;;;;;;;;;;;;;;;24.23;49.45;101397.28;4951164;28;1358;-63
2021/06/09 09:56:00;;;;;;;;;;;;;;;24.25;48.41;101407.84;4951178;28;791;-64
2021/06/09 09:58:28;;;;;;;;;;;;;;;24.30;47.61;101403.88;4949387;28;1244;-63
2021/06/09 10:01:09;;;;;;;;;;;;;;;24.30;48.73;101405.69;4950815;28;1983;-64
2021/06/09 10:03:37;;;;;;;;;;;;;;;24.29;48.46;101393.34;4951047;28;736;-65
2021/06/09 10:06:22;;;;;;;;;;;;;;;24.29;48.54;101401.31;4950919;29;1186;-64
2021/06/09 10:08:49;;;;;;;;;;;;;;;24.27;49.33;101404.09;4950952;28;900;-64
2021/06/09 10:11:17;;;;;;;;;;;;;;;24.25;48.64;101398.06;4950628;28;1276;-64
2021/06/09 10:13:45;;;;;;;;;;;;;;;24.26;48.71;101401.53;4949867;28;728;-65
2021/06/09 10:16:41;;;;;;;;;;;;;;;24.25;49.25;101391.88;4950495;28;1374;-64
2021/06/09 10:19:09;;;;;;;;;;;;;;;24.30;48.06;101405.69;4966832;28;1042;-64
2021/06/09 10:21:50;;;;;;;;;;;;;;;24.28;49.18;101408.47;4950455;28;1911;-64
2021/06/09 10:24:17;;;;;;;;;;;;;;;24.32;49.19;101406.44;4949019;28;1424;-64
2021/06/09 10:26:51;;;;;;;;;;;;;;;24.31;48.50;101402.94;4950740;28;1280;-64
2021/06/09 10:29:20;;;;;;;;;;;;;;;24.30;47.85;101405.69;4948977;29;913;-65
2021/06/09 10:31:49;;;;;;;;;;;;;;;24.30;48.69;101409.22;4950501;28;1318;-65
2021/06/09 10:34:16;;;;;;;;;;;;;;;24.33;47.87;101410.81;4950231;28;1883;-64
2021/06/09 10:36:45;;;;;;;;;;;;;;;24.33;48.24;101411.66;4950468;28;1265;-64
2021/06/09 10:39:12;;;;;;;;;;;;;;;24.31;48.62;101410.94;4950548;28;747;-64
2021/06/09 10:41:40;;;;;;;;;;;;;;;24.32;47.75;101404.63;4948636;28;1984;-64
2021/06/09 10:44:07;;;;;;;;;;;;;;;24.32;47.76;101409.09;4948565;28;792;-64
2021/06/09 10:46:37;;;;;;;;;;;;;;;24.34;47.46;101412.53;4949863;28;1532;-65
2021/06/09 10:49:04;;;;;;;;;;;;;;;24.34;48.54;101408.06;4950303;28;882;-65
2021/06/09 10:51:31;;;;;;;;;;;;;;;24.36;47.41;101411.44;4949648;28;1356;-65
2021/06/09 10:54:00;;;;;;;;;;;;;;;24.40;47.81;101418.28;4949162;28;1264;-64
2021/06/09 10:56:27;;;;;;;;;;;;;;;24.41;46.46;101411.09;4949992;28;1380;-65
2021/06/09 10:58:54;;;;;;;;;;;;;;;24.40;46.69;101406.75;4949461;28;1587;-66
2021/06/09 11:01:23;;;;;;;;;;;;;;;24.40;48.16;101407.63;4948352;28;1910;-65
2021/06/09 11:03:54;;;;;;;;;;;;;;;24.36;48.92;101411.44;4950365;28;797;-65
2021/06/09 11:06:41;;;;;;;;;;;;;;;24.35;47.32;101404.41;4948550;29;1259;-65
2021/06/09 11:09:12;;;;;;;;;;;;;;;24.33;48.29;101405.47;4949674;28;1008;-65
2021/06/09 11:11:39;;;;;;;;;;;;;;;24.34;48.81;101404.53;4950067;28;1367;-65
2021/06/09 11:14:17;;;;;;;;;;;;;;;24.34;48.86;101408.06;4949935;28;800;-65
2021/06/09 11:16:47;;;;;;;;;;;;;;;24.35;48.73;101403.56;4949513;29;1237;-65
2021/06/09 11:19:29;;;;;;;;;;;;;;;24.39;48.49;101395.25;4955520;28;1540;-64
2021/06/09 11:22:12;;;;;;;;;;;;;;;24.45;48.01;101388.63;4958309;28;1915;-63
2021/06/09 11:24:38;;;;;;;;;;;;;;;24.48;47.96;101396.41;4952358;28;1903;-62
2021/06/09 11:27:24;;;;;;;;;;;;;;;24.50;47.88;101391.00;4960776;28;1394;-64
2021/06/09 11:29:51;;;;;;;;;;;;;;;24.52;48.05;101386.41;4959610;28;1854;-67
2021/06/09 11:32:19;;;;;;;;;;;;;;;24.53;49.39;101388.13;4967588;28;1256;-64
2021/06/09 11:34:56;;;;;;;;;;;;;;;24.52;48.16;101383.72;4967916;28;779;-63
2021/06/09 11:37:23;;;;;;;;;;;;;;;24.52;48.91;101384.59;4973044;28;1758;-63
2021/06/09 11:40:04;;;;;;;;;;;;;;;24.51;48.77;101376.69;4986338;28;1134;-63
2021/06/09 11:42:32;;;;;;;;;;;;;;;24.63;47.92;101381.13;5025050;28;1796;-63
2021/06/09 11:45:17;;;;;;;;;;;;;;;24.62;48.63;101382.13;5023192;28;1277;-63
2021/06/09 11:47:44;;;;;;;;;;;;;;;24.61;47.25;101369.75;5045685;28;1557;-64
2021/06/09 11:50:25;;;;;;;;;;;;;;;24.65;48.69;101368.59;4968740;28;956;-64
2021/06/09 11:53:12;;;;;;;;;;;;;;;24.75;48.19;101385.59;5052749;28;1315;-63
2021/06/09 11:55:42;;;;;;;;;;;;;;;24.70;47.10;101371.75;4986545;28;841;-64
2021/06/09 11:58:11;;;;;;;;;;;;;;;24.74;46.72;101365.25;4984690;28;1419;-64
2021/06/09 12:00:56;;;;;;;;;;;;;;;24.74;46.28;101365.25;5043641;28;1973;-64
2021/06/09 12:03:23;;;;;;;;;;;;;;;24.64;46.81;101357.06;4967192;28;1217;-64
2021/06/09 12:05:50;;;;;;;;;;;;;;;24.70;47.30;101358.44;4967300;28;1092;-63
2021/06/09 12:08:17;;;;;;;;;;;;;;;24.78;46.76;101364.91;4967042;28;1264;-63
2021/06/09 12:10:43;;;;;;;;;;;;;;;24.80;46.66;101351.50;4976761;28;1221;-63
2021/06/09 12:13:24;;;;;;;;;;;;;;;24.80;48.09;101367.47;4984240;28;1715;-61
2021/06/09 12:16:00;;;;;;;;;;;;;;;24.91;47.86;101356.91;4999365;28;1062;-63
2021/06/09 12:18:28;;;;;;;;;;;;;;;24.97;47.93;101359.97;5067942;28;1300;-62
2021/06/09 12:21:01;;;;;;;;;;;;;;;24.98;47.78;101358.16;5067921;28;1913;-63
2021/06/09 12:23:32;;;;;;;;;;;;;;;24.96;47.99;101349.41;5068386;28;1296;-63
2021/06/09 12:25:59;;;;;;;;;;;;;;;24.96;47.71;101344.09;5067881;28;1423;-64
2021/06/09 12:28:26;;;;;;;;;;;;;;;24.95;47.25;101347.72;5067929;28;1296;-63
2021/06/09 12:30:55;;;;;;;;;;;;;;;25.00;46.62;101342.91;4965068;28;1416;-64
2021/06/09 12:33:40;;;;;;;;;;;;;;;24.92;47.31;101345.28;4944895;28;1312;-63
2021/06/09 12:36:08;;;;;;;;;;;;;;;24.83;47.92;101338.84;4946403;28;1063;-63
2021/06/09 12:38:36;;;;;;;;;;;;;;;24.81;47.71;101339.88;4945886;28;1344;-62
2021/06/09 12:41:04;;;;;;;;;;;;;;;24.97;46.88;101336.00;4946039;28;1938;-62
2021/06/09 12:43:31;;;;;;;;;;;;;;;24.89;48.07;101332.19;4946577;28;1303;-63
2021/06/09 12:46:00;;;;;;;;;;;;;;;24.83;47.06;101328.19;4982310;28;1411;-62
2021/06/09 12:48:38;;;;;;;;;;;;;;;24.92;46.88;101332.81;4983150;28;1248;-63
2021/06/09 12:51:13;;;;;;;;;;;;;;;24.93;46.92;101330.97;5037775;28;1355;-63
2021/06/09 12:53:48;;;;;;;;;;;;;;;24.90;47.73;101323.22;5049050;28;1142;-62
2021/06/09 12:56:17;;;;;;;;;;;;;;;24.90;47.10;101325.88;5065546;28;1346;-61
2021/06/09 12:58:47;;;;;;;;;;;;;;;24.88;47.29;101318.00;5066970;28;869;-62
2021/06/09 13:01:15;;;;;;;;;;;;;;;24.96;46.54;101317.44;4990922;28;1906;-64
2021/06/09 13:03:46;;;;;;;;;;;;;;;24.92;46.83;101315.97;4965579;28;822;-62